createdAt,value
2016-06-04T00:00:38.169Z,75.67
2016-06-04T00:01:38.188Z,75.96
2016-06-04T00:02:38.221Z,76.25
2016-06-04T00:03:38.241Z,75.77
2016-06-04T00:04:38.274Z,76.64
2016-06-04T00:05:38.292Z,76.34
2016-06-04T00:06:38.327Z,75.48
2016-06-04T00:07:38.344Z,75.38
2016-06-04T00:08:38.394Z,76.15
2016-06-04T00:09:38.397Z,75.87
2016-06-04T00:10:38.415Z,75.77
2016-06-04T00:11:41.448Z,76.34
2016-06-04T00:12:38.468Z,76.44
2016-06-04T00:13:38.485Z,76.92
2016-06-04T00:14:52.707Z,77.01
2016-06-04T00:15:38.537Z,76.82
2016-06-04T00:16:38.571Z,76.82
2016-06-04T00:17:38.590Z,77.21
2016-06-04T00:18:38.623Z,77.4
2016-06-04T00:19:38.643Z,77.01
2016-06-04T00:20:38.661Z,77.11
2016-06-04T00:21:38.695Z,77.31
2016-06-04T00:22:38.712Z,77.59
2016-06-04T00:23:38.747Z,78.17
2016-06-04T00:24:38.765Z,77.88
2016-06-04T00:26:39.286Z,77.78
2016-06-04T00:27:38.835Z,77.69
2016-06-04T00:28:38.870Z,78.08
2016-06-04T00:29:38.888Z,77.88
2016-06-04T00:30:53.109Z,78.27
2016-06-04T00:31:38.940Z,78.36
2016-06-04T00:32:38.974Z,78.17
2016-06-04T00:33:38.992Z,78.55
2016-06-04T00:34:38.870Z,77.88
2016-06-04T00:35:39.044Z,77.69
2016-06-04T00:36:39.063Z,77.69
2016-06-04T00:37:39.097Z,78.23
2016-06-04T00:38:39.116Z,78.08
2016-06-04T00:39:39.149Z,78.65
2016-06-04T00:40:39.683Z,78.99
2016-06-04T00:41:39.202Z,79.19
2016-06-04T00:42:39.220Z,79.28
2016-06-04T00:43:39.238Z,79.57
2016-06-04T00:45:39.291Z,79.96
2016-06-04T00:46:53.496Z,80.34
2016-06-04T00:47:39.340Z,80.82
2016-06-04T00:48:39.374Z,81.1
2016-06-04T00:49:39.392Z,80.73
2016-06-04T00:50:39.410Z,80.82
2016-06-04T00:51:39.445Z,81.3
2016-06-04T00:52:39.462Z,81.3
2016-06-04T00:53:39.482Z,80.53
2016-06-04T00:54:39.515Z,80.34
2016-06-04T00:55:39.392Z,81.26
2016-06-04T00:56:39.567Z,80.53
2016-06-04T00:57:39.601Z,79.96
2016-06-04T00:58:39.620Z,79.47
2016-06-04T00:59:39.650Z,79.57
2016-06-04T01:00:39.718Z,80.11
2016-06-04T01:01:53.993Z,79.44
2016-06-04T01:02:39.821Z,79.72
2016-06-04T01:03:39.888Z,79.82
2016-06-04T01:04:39.932Z,79.91
2016-06-04T01:05:39.963Z,80.49
2016-06-04T01:06:40.009Z,81.35
2016-06-04T01:07:40.054Z,81.93
2016-06-04T01:08:40.100Z,81.93
2016-06-04T01:09:40.111Z,81.84
2016-06-04T01:10:40.462Z,81.84
2016-06-04T01:11:40.266Z,81.64
2016-06-04T01:12:40.195Z,81.74
2016-06-04T01:13:40.233Z,81.35
2016-06-04T01:14:40.255Z,81.93
2016-06-04T01:15:40.290Z,82.03
2016-06-04T01:16:40.310Z,82.03
2016-06-04T01:17:40.345Z,82.21
2016-06-04T01:18:40.365Z,81.93
2016-06-04T01:19:40.384Z,82.46
2016-06-04T01:20:40.418Z,82.56
2016-06-04T01:21:40.438Z,82.31
2016-06-04T01:22:40.472Z,82.03
2016-06-04T01:23:40.491Z,81.84
2016-06-04T01:24:40.509Z,82.51
2016-06-04T01:25:40.684Z,82.98
2016-06-04T01:26:40.781Z,82.31
2016-06-04T01:27:40.597Z,82.46
2016-06-04T01:28:40.615Z,82.27
2016-06-04T01:31:40.687Z,83.42
2016-06-04T01:32:40.720Z,84.58
2016-06-04T01:33:54.928Z,84
2016-06-04T01:34:40.756Z,84.19
2016-06-04T01:35:40.791Z,83.81
2016-06-04T01:36:40.825Z,83.91
2016-06-04T01:37:40.843Z,84.58
2016-06-04T01:38:40.862Z,84.58
2016-06-04T01:39:40.880Z,83.91
2016-06-04T01:40:40.914Z,84.48
2016-06-04T01:41:40.776Z,84.67
2016-06-04T01:42:40.966Z,84.58
2016-06-04T01:43:40.984Z,85.05
2016-06-04T01:45:41.114Z,84.48
2016-06-04T01:46:41.055Z,84.77
2016-06-04T01:47:41.089Z,84.19
2016-06-04T01:48:41.108Z,84.48
2016-06-04T01:49:55.316Z,84
2016-06-04T01:50:41.160Z,84.86
2016-06-04T01:51:41.177Z,84.48
2016-06-04T01:52:41.211Z,84
2016-06-04T01:53:41.230Z,84.19
2016-06-04T01:54:41.263Z,84.67
2016-06-04T01:55:41.157Z,84.38
2016-06-04T01:56:41.301Z,84.77
2016-06-04T01:57:41.335Z,85.39
2016-06-04T01:58:41.353Z,85.3
2016-06-04T01:59:41.371Z,85.15
2016-06-04T02:00:41.404Z,85.68
2016-06-04T02:02:41.457Z,85.11
2016-06-04T02:03:41.475Z,85.78
2016-06-04T02:04:41.510Z,85.3
2016-06-04T02:05:55.717Z,85.21
2016-06-04T02:06:41.561Z,85.78
2016-06-04T02:07:41.581Z,85.49
2016-06-04T02:08:41.598Z,85.78
2016-06-04T02:09:41.616Z,86.45
2016-06-04T02:10:41.651Z,86.07
2016-06-04T02:11:42.279Z,85.88
2016-06-04T02:12:41.702Z,85.68
2016-06-04T02:13:41.737Z,85.78
2016-06-04T02:14:41.755Z,85.88
2016-06-04T02:15:41.773Z,85.68
2016-06-04T02:16:41.791Z,86.07
2016-06-04T02:17:41.857Z,86.88
2016-06-04T02:18:41.844Z,86.25
2016-06-04T02:19:41.878Z,87.12
2016-06-04T02:20:41.896Z,86.21
2016-06-04T02:21:56.105Z,86.41
2016-06-04T02:23:41.967Z,85.64
2016-06-04T02:24:41.986Z,85.88
2016-06-04T02:25:42.222Z,87.02
2016-06-04T02:26:42.427Z,86.93
2016-06-04T02:27:42.055Z,86.88
2016-06-04T02:28:42.090Z,86.79
2016-06-04T02:29:42.107Z,87.74
2016-06-04T02:30:42.126Z,87.65
2016-06-04T02:31:42.160Z,87.94
2016-06-04T02:32:42.179Z,86.02
2016-06-04T02:33:42.212Z,86.69
2016-06-04T02:34:42.231Z,86.6
2016-06-04T02:35:42.265Z,86.16
2016-06-04T02:36:56.473Z,86.45
2016-06-04T02:37:42.301Z,86.16
2016-06-04T02:38:42.350Z,85.97
2016-06-04T02:39:42.354Z,86.25
2016-06-04T02:40:42.387Z,86.35
2016-06-04T02:41:42.437Z,87.02
2016-06-04T02:42:42.425Z,86.74
2016-06-04T02:43:42.458Z,87.12
2016-06-04T02:45:42.511Z,86.74
2016-06-04T02:46:42.528Z,86.07
2016-06-04T02:47:42.547Z,87.02
2016-06-04T02:48:42.580Z,86.93
2016-06-04T02:50:42.617Z,86.16
2016-06-04T02:51:42.652Z,87.02
2016-06-04T02:52:42.669Z,87.41
2016-06-04T02:53:42.688Z,86.88
2016-06-04T02:54:42.722Z,87.94
2016-06-04T02:55:43.381Z,87.74
2016-06-04T02:56:42.774Z,87.37
2016-06-04T02:57:42.793Z,87.46
2016-06-04T02:58:42.826Z,88.51
2016-06-04T02:59:42.845Z,88.51
2016-06-04T03:00:42.894Z,88.03
2016-06-04T03:01:42.882Z,88.32
2016-06-04T03:02:42.946Z,88.13
2016-06-04T03:03:42.965Z,88.32
2016-06-04T03:04:42.984Z,89.18
2016-06-04T03:06:43.004Z,88.42
2016-06-04T03:07:43.038Z,87.98
2016-06-04T03:08:57.262Z,88.7
2016-06-04T03:09:43.075Z,88.13
2016-06-04T03:10:43.656Z,88.9
2016-06-04T03:12:43.161Z,88.51
2016-06-04T03:13:43.195Z,88.8
2016-06-04T03:14:43.214Z,88.03
2016-06-04T03:15:43.231Z,88.03
2016-06-04T03:16:43.250Z,88.37
2016-06-04T03:18:43.317Z,87.88
2016-06-04T03:19:43.321Z,87.21
2016-06-04T03:20:43.355Z,88.17
2016-06-04T03:23:43.425Z,87.6
2016-06-04T03:24:57.649Z,87.79
2016-06-04T03:25:43.836Z,87.5
2016-06-04T03:26:43.496Z,87.02
2016-06-04T03:27:43.514Z,87.21
2016-06-04T03:28:43.549Z,87.31
2016-06-04T03:29:43.566Z,86.25
2016-06-04T03:30:43.600Z,86.25
2016-06-04T03:31:43.619Z,86.64
2016-06-04T03:32:43.638Z,87.12
2016-06-04T03:33:43.654Z,86.74
2016-06-04T03:34:43.690Z,86.83
2016-06-04T03:35:43.723Z,87.02
2016-06-04T03:36:43.741Z,87.02
2016-06-04T03:37:43.759Z,87.12
2016-06-04T03:38:43.793Z,87.41
2016-06-04T03:39:43.812Z,87.7
2016-06-04T03:40:58.020Z,87.21
2016-06-04T03:41:43.864Z,87.07
2016-06-04T03:42:43.898Z,86.93
2016-06-04T03:43:43.916Z,87.16
2016-06-04T03:44:43.934Z,87.07
2016-06-04T03:45:43.797Z,86.21
2016-06-04T03:46:43.987Z,85.63
2016-06-04T03:47:44.006Z,86.4
2016-06-04T03:48:44.023Z,86.21
2016-06-04T03:49:44.058Z,86.21
2016-06-04T03:50:44.075Z,86.21
2016-06-04T03:51:44.110Z,86.49
2016-06-04T03:52:44.127Z,85.34
2016-06-04T03:53:44.162Z,85.25
2016-06-04T03:54:44.180Z,84.91
2016-06-04T03:55:45.449Z,84.42
2016-06-04T03:56:58.422Z,84.52
2016-06-04T03:57:44.251Z,83.37
2016-06-04T03:58:44.269Z,83.37
2016-06-04T03:59:44.303Z,83.47
2016-06-04T04:00:44.321Z,82.31
2016-06-04T04:01:44.355Z,82.31
2016-06-04T04:02:44.374Z,82.03
2016-06-04T04:03:44.393Z,81.93
2016-06-04T04:04:44.426Z,82.12
2016-06-04T04:05:44.444Z,82.07
2016-06-04T04:06:44.479Z,81.97
2016-06-04T04:07:44.496Z,81.97
2016-06-04T04:08:44.515Z,82.54
2016-06-04T04:09:44.548Z,81.59
2016-06-04T04:10:44.582Z,80.63
2016-06-04T04:11:58.776Z,78.27
2016-06-04T04:12:44.635Z,76.86
2016-06-04T04:13:44.653Z,74.63
2016-06-04T04:14:44.687Z,70.86
2016-06-04T04:15:44.706Z,68.19
2016-06-04T04:16:44.723Z,66.11
2016-06-04T04:17:44.758Z,64.15
2016-06-04T04:18:44.776Z,62.05
2016-06-04T04:19:44.794Z,62.05
2016-06-04T04:20:44.828Z,61.47
2016-06-04T04:21:44.847Z,60.06
2016-06-04T04:22:44.881Z,59.09
2016-06-04T04:25:45.342Z,57.7
2016-06-04T04:26:45.689Z,56.67
2016-06-04T04:27:45.019Z,54.75
2016-06-04T04:28:45.053Z,53.91
2016-06-04T04:29:45.072Z,52.39
2016-06-04T04:30:45.105Z,51.9
2016-06-04T04:31:45.138Z,51.06
2016-06-04T04:32:45.157Z,51.09
2016-06-04T04:33:45.191Z,50.41
2016-06-04T04:34:45.210Z,49.95
2016-06-04T04:35:45.243Z,49.56
2016-06-04T04:36:45.277Z,49.07
2016-06-04T04:37:45.312Z,48
2016-06-04T04:38:45.361Z,47.08
2016-06-04T04:40:45.398Z,46.04
2016-06-04T04:41:45.416Z,46.42
2016-06-04T04:43:59.674Z,44.43
2016-06-04T04:44:45.518Z,43.95
2016-06-04T04:45:45.568Z,42.68
2016-06-04T04:46:45.570Z,42.29
2016-06-04T04:47:45.604Z,41.94
2016-06-04T04:48:45.638Z,41.26
2016-06-04T04:49:45.656Z,40.99
2016-06-04T04:50:45.690Z,40.33
2016-06-04T04:51:45.725Z,40.16
2016-06-04T04:52:45.758Z,38.69
2016-06-04T04:53:45.792Z,38.02
2016-06-04T04:54:45.842Z,37.55
2016-06-04T04:55:45.861Z,38.22
2016-06-04T04:56:46.175Z,39.26
2016-06-04T04:57:45.958Z,40.89
2016-06-04T04:58:45.947Z,41.73
2016-06-04T05:00:00.170Z,41.16
2016-06-04T05:00:46.029Z,41.16
2016-06-04T05:01:46.048Z,39.43
2016-06-04T05:02:46.082Z,38.59
2016-06-04T05:03:46.116Z,38.79
2016-06-04T05:04:46.150Z,38.71
2016-06-04T05:05:46.184Z,36.78
2016-06-04T05:06:46.218Z,36.41
2016-06-04T05:07:46.236Z,36.8
2016-06-04T05:08:46.285Z,37.57
2016-06-04T05:09:46.304Z,36.31
2016-06-04T05:10:47.182Z,36.43
2016-06-04T05:11:46.371Z,36.58
2016-06-04T05:12:46.406Z,36.1
2016-06-04T05:13:46.440Z,36.41
2016-06-04T05:14:46.474Z,35.82
2016-06-04T05:16:00.697Z,36.62
2016-06-04T05:16:46.541Z,36.8
2016-06-04T05:17:46.576Z,36.41
2016-06-04T05:18:46.609Z,36.02
2016-06-04T05:19:46.643Z,35.84
2016-06-04T05:20:46.662Z,35.36
2016-06-04T05:21:46.712Z,35.17
2016-06-04T05:22:46.745Z,34.41
2016-06-04T05:23:46.778Z,33.56
2016-06-04T05:24:46.798Z,33.58
2016-06-04T05:25:47.128Z,31.63
2016-06-04T05:26:46.975Z,32.2
2016-06-04T05:27:46.914Z,32.79
2016-06-04T05:28:46.949Z,31.73
2016-06-04T05:29:46.983Z,30.96
2016-06-04T05:30:47.001Z,30.77
2016-06-04T05:32:01.225Z,30.88
2016-06-04T05:32:47.085Z,31.57
2016-06-04T05:33:47.119Z,30.68
2016-06-04T05:34:47.152Z,30.88
2016-06-04T05:35:47.186Z,30.58
2016-06-04T05:36:47.220Z,30.19
2016-06-04T05:37:47.255Z,30.19
2016-06-04T05:38:47.132Z,31.17
2016-06-04T05:39:47.322Z,30.77
2016-06-04T05:40:47.372Z,29.6
2016-06-04T05:41:47.765Z,30.02
2016-06-04T05:42:47.440Z,29.34
2016-06-04T05:43:47.317Z,29.64
2016-06-04T05:45:47.542Z,28.29
2016-06-04T05:47:01.765Z,29.27
2016-06-04T05:47:47.609Z,29.24
2016-06-04T05:48:47.659Z,30.68
2016-06-04T05:49:47.678Z,30.78
2016-06-04T05:50:47.726Z,30.39
2016-06-04T05:51:47.745Z,30
2016-06-04T05:52:47.873Z,30.6
2016-06-04T05:53:47.828Z,30.49
2016-06-04T05:54:47.862Z,31.07
2016-06-04T05:55:47.897Z,30.1
2016-06-04T05:56:48.149Z,29.8
2016-06-04T05:57:47.964Z,30.77
2016-06-04T05:58:48.014Z,30.27
2016-06-04T05:59:48.033Z,30.49
2016-06-04T06:00:48.082Z,31.14
2016-06-04T06:01:48.100Z,30.74
2016-06-04T06:02:48.149Z,30.74
2016-06-04T06:03:48.169Z,32.66
2016-06-04T06:04:48.218Z,33.41
2016-06-04T06:05:48.236Z,35.84
2016-06-04T06:06:48.285Z,35.61
2016-06-04T06:07:48.319Z,34.75
2016-06-04T06:08:48.353Z,33.79
2016-06-04T06:09:48.387Z,33.89
2016-06-04T06:10:48.421Z,33.79
2016-06-04T06:11:48.455Z,34.08
2016-06-04T06:12:48.489Z,33.4
2016-06-04T06:13:48.523Z,33.12
2016-06-04T06:14:48.541Z,32.16
2016-06-04T06:15:48.591Z,32.37
2016-06-04T06:16:48.625Z,33.05
2016-06-04T06:17:48.659Z,33.53
2016-06-04T06:19:02.883Z,33.41
2016-06-04T06:19:48.726Z,34.78
2016-06-04T06:20:48.761Z,32.63
2016-06-04T06:21:48.795Z,32.82
2016-06-04T06:22:48.812Z,35.94
2016-06-04T06:23:48.862Z,35.72
2016-06-04T06:24:48.896Z,35.88
2016-06-04T06:25:48.930Z,36.49
2016-06-04T06:26:48.809Z,36.76
2016-06-04T06:27:48.983Z,36.37
2016-06-04T06:28:49.016Z,36.55
2016-06-04T06:29:49.050Z,35.39
2016-06-04T06:30:49.100Z,34.73
2016-06-04T06:31:49.133Z,32.42
2016-06-04T06:32:49.152Z,32.55
2016-06-04T06:33:49.186Z,29.35
2016-06-04T06:35:03.410Z,28.03
2016-06-04T06:35:49.269Z,27.29
2016-06-04T06:36:49.132Z,27.4
2016-06-04T06:37:49.338Z,25.05
2016-06-04T06:38:49.355Z,25.08
2016-06-04T06:39:49.405Z,25.29
2016-06-04T06:40:49.440Z,25.01
2016-06-04T06:41:49.988Z,24.02
2016-06-04T06:42:49.491Z,24.3
2016-06-04T06:43:49.541Z,24.79
2016-06-04T06:44:49.575Z,23.9
2016-06-04T06:46:49.487Z,24.51
2016-06-04T06:47:49.709Z,24.3
2016-06-04T06:49:49.760Z,24.6
2016-06-04T06:51:03.985Z,25.28
2016-06-04T06:51:49.829Z,24.88
2016-06-04T06:52:49.862Z,25.87
2016-06-04T06:53:49.896Z,25.27
2016-06-04T06:54:49.945Z,25.84
2016-06-04T06:55:50.120Z,24.38
2016-06-04T06:56:50.420Z,25.26
2016-06-04T06:57:50.063Z,24.38
2016-06-04T06:58:50.081Z,24.4
2016-06-04T06:59:50.131Z,24.62
2016-06-04T07:00:50.165Z,23.94
2016-06-04T07:01:50.200Z,24.23
2016-06-04T07:02:50.249Z,23.46
2016-06-04T07:03:50.283Z,23.46
2016-06-04T07:04:50.316Z,22.78
2016-06-04T07:05:50.350Z,20.32
2016-06-04T07:07:04.575Z,22.3
2016-06-04T07:07:50.434Z,23.26
2016-06-04T07:08:50.468Z,23.27
2016-06-04T07:09:50.501Z,21.81
2016-06-04T07:10:50.535Z,22.2
2016-06-04T07:11:50.413Z,20.92
2016-06-04T07:12:50.618Z,19.26
2016-06-04T07:13:50.653Z,21.14
2016-06-04T07:14:50.532Z,19.82
2016-06-04T07:15:50.737Z,20.31
2016-06-04T07:16:50.754Z,20.33
2016-06-04T07:17:50.835Z,20.81
2016-06-04T07:18:50.838Z,19.52
2016-06-04T07:19:50.873Z,20.52
2016-06-04T07:20:50.906Z,19.63
2016-06-04T07:22:05.146Z,19.54
2016-06-04T07:22:50.990Z,20.52
2016-06-04T07:23:51.040Z,20.52
2016-06-04T07:24:51.073Z,20.01
2016-06-04T07:25:51.122Z,20.8
2016-06-04T07:27:51.175Z,21.19
2016-06-04T07:28:51.225Z,20.51
2016-06-04T07:29:51.243Z,21.6
2016-06-04T07:31:51.327Z,19.53
2016-06-04T07:33:51.394Z,20.21
2016-06-04T07:35:51.525Z,20.39
2016-06-04T07:36:51.511Z,21.87
2016-06-04T07:37:51.561Z,20.67
2016-06-04T07:38:51.424Z,21.18
2016-06-04T07:39:51.630Z,22.73
2016-06-04T07:40:52.101Z,21.36
2016-06-04T07:41:52.291Z,21.39
2016-06-04T07:42:51.747Z,20.43
2016-06-04T07:43:51.781Z,19.35
2016-06-04T07:44:51.815Z,19.64
2016-06-04T07:45:51.864Z,21.2
2016-06-04T07:46:51.882Z,20.7
2016-06-04T07:47:51.932Z,20.42
2016-06-04T07:48:51.810Z,18.95
2016-06-04T07:49:52.015Z,18.96
2016-06-04T07:50:52.049Z,19.06
2016-06-04T07:51:52.084Z,19.26
2016-06-04T07:52:52.133Z,19.44
2016-06-04T07:54:06.341Z,21.14
2016-06-04T07:54:52.200Z,18.99
2016-06-04T07:55:53.001Z,18.79
2016-06-04T07:56:52.800Z,19.17
2016-06-04T07:57:52.303Z,17.88
2016-06-04T07:58:52.446Z,18.97
2016-06-04T07:59:52.386Z,19.24
2016-06-04T08:00:52.420Z,17.17
2016-06-04T08:01:52.454Z,17.96
2016-06-04T08:02:52.488Z,19.45
2016-06-04T08:03:52.522Z,20.61
2016-06-04T08:04:52.572Z,19.52
2016-06-04T08:05:52.605Z,19.51
2016-06-04T08:06:52.639Z,19.71
2016-06-04T08:08:52.723Z,20.89
2016-06-04T08:10:06.947Z,20.4
2016-06-04T08:10:52.807Z,20.68
2016-06-04T08:11:52.840Z,20.4
2016-06-04T08:12:52.718Z,19.42
2016-06-04T08:13:53.643Z,19.34
2016-06-04T08:14:52.942Z,19.04
2016-06-04T08:15:52.992Z,18.85
2016-06-04T08:16:53.026Z,19.04
2016-06-04T08:17:53.060Z,19.71
2016-06-04T08:18:53.093Z,19.01
2016-06-04T08:19:53.127Z,20.17
2016-06-04T08:20:53.162Z,20.65
2016-06-04T08:21:53.211Z,21.52
2016-06-04T08:22:53.245Z,19.95
2016-06-04T08:23:53.294Z,19.27
2016-06-04T08:24:53.313Z,20.26
2016-06-04T08:26:07.537Z,20.36
2016-06-04T08:26:53.475Z,20.65
2016-06-04T08:27:53.431Z,20.06
2016-06-04T08:28:53.480Z,19.29
2016-06-04T08:29:53.514Z,20.86
2016-06-04T08:30:53.531Z,19
2016-06-04T08:31:53.581Z,19.21
2016-06-04T08:32:53.616Z,18.52
2016-06-04T08:33:53.649Z,18.92
2016-06-04T08:34:53.684Z,20
2016-06-04T08:35:53.717Z,19.09
2016-06-04T08:36:53.829Z,19.19
2016-06-04T08:37:53.816Z,18.69
2016-06-04T08:38:53.835Z,20.06
2016-06-04T08:39:53.868Z,20.14
2016-06-04T08:40:53.902Z,19.56
2016-06-04T08:42:08.392Z,21.63
2016-06-04T08:42:54.048Z,19.27
2016-06-04T08:43:54.020Z,19.08
2016-06-04T08:44:54.055Z,17.91
2016-06-04T08:45:54.088Z,18.8
2016-06-04T08:46:54.122Z,18.91
2016-06-04T08:47:54.156Z,17.74
2016-06-04T08:48:54.190Z,19.03
2016-06-04T08:49:54.240Z,19.9
2016-06-04T08:50:54.273Z,20.79
2016-06-04T08:51:54.323Z,17.44
2016-06-04T08:52:54.341Z,17.37
2016-06-04T08:53:54.390Z,19.51
2016-06-04T08:54:54.409Z,19.1
2016-06-04T08:57:08.683Z,18.6
2016-06-04T08:57:54.526Z,17.72
2016-06-04T08:58:54.529Z,18.52
2016-06-04T08:59:54.594Z,19
2016-06-04T09:00:54.628Z,18.51
2016-06-04T09:01:54.678Z,20.86
2016-06-04T09:02:54.712Z,19.19
2016-06-04T09:03:54.745Z,19.11
2016-06-04T09:04:54.780Z,18.41
2016-06-04T09:05:54.814Z,19
2016-06-04T09:06:54.848Z,20.78
2016-06-04T09:07:54.881Z,18.61
2016-06-04T09:08:54.916Z,20.99
2016-06-04T09:09:54.950Z,19.12
2016-06-04T09:10:55.014Z,18.43
2016-06-04T09:11:55.096Z,17.83
2016-06-04T09:12:55.177Z,19.1
2016-06-04T09:13:55.116Z,20.47
2016-06-04T09:14:55.135Z,19.48
2016-06-04T09:15:55.184Z,19.57
2016-06-04T09:16:55.203Z,20.46
2016-06-04T09:17:55.096Z,21.04
2016-06-04T09:18:55.285Z,20.96
2016-06-04T09:19:55.321Z,19.59
2016-06-04T09:20:55.354Z,19.69
2016-06-04T09:21:55.388Z,18.51
2016-06-04T09:22:55.266Z,19.3
2016-06-04T09:23:55.471Z,19.48
2016-06-04T09:24:55.506Z,22.63
2016-06-04T09:26:55.573Z,18.9
2016-06-04T09:27:55.607Z,19.3
2016-06-04T09:29:09.832Z,20.5
2016-06-04T09:29:55.676Z,19.11
2016-06-04T09:30:55.725Z,20.87
2016-06-04T09:31:55.742Z,19.6
2016-06-04T09:32:55.792Z,21.08
2016-06-04T09:33:55.827Z,20.28
2016-06-04T09:34:55.861Z,20
2016-06-04T09:35:55.895Z,19.11
2016-06-04T09:36:55.928Z,19.11
2016-06-04T09:37:55.962Z,20.39
2016-06-04T09:38:55.997Z,18.73
2016-06-04T09:39:56.030Z,18.52
2016-06-04T09:40:56.064Z,19.02
2016-06-04T09:41:56.114Z,20.09
2016-06-04T09:42:55.992Z,20.95
2016-06-04T09:45:10.405Z,20.64
2016-06-04T09:45:56.249Z,20.95
2016-06-04T09:46:56.283Z,22.72
2016-06-04T09:47:56.318Z,20.37
2016-06-04T09:48:56.351Z,19.59
2016-06-04T09:49:56.385Z,20.97
2016-06-04T09:50:56.419Z,19.98
2016-06-04T09:51:56.454Z,19.8
2016-06-04T09:52:56.502Z,20.87
2016-06-04T09:53:56.520Z,19.38
2016-06-04T09:54:56.571Z,21.95
2016-06-04T09:55:56.604Z,21.44
2016-06-04T09:56:56.638Z,19.69
2016-06-04T09:57:57.031Z,18.91
2016-06-04T09:58:56.707Z,19.5
2016-06-04T10:01:12.886Z,20.19
2016-06-04T10:01:56.808Z,19.71
2016-06-04T10:02:56.842Z,19.12
2016-06-04T10:03:56.876Z,19.42
2016-06-04T10:04:56.926Z,20.98
2016-06-04T10:05:56.961Z,19.88
2016-06-04T10:06:57.039Z,19.61
2016-06-04T10:07:57.084Z,19.7
2016-06-04T10:08:57.162Z,19.5
2016-06-04T10:09:57.223Z,19.01
2016-06-04T10:10:57.274Z,20.49
2016-06-04T10:11:57.318Z,18.63
2016-06-04T10:12:57.909Z,18.84
2016-06-04T10:13:58.250Z,19.42
2016-06-04T10:14:57.450Z,19.71
2016-06-04T10:15:57.505Z,20.39
2016-06-04T10:17:11.720Z,19.38
2016-06-04T10:17:57.563Z,18.91
2016-06-04T10:18:57.601Z,20.98
2016-06-04T10:19:57.498Z,19.7
2016-06-04T10:20:57.691Z,20.09
2016-06-04T10:21:57.710Z,22.05
2016-06-04T10:22:57.746Z,20.07
2016-06-04T10:23:57.796Z,18.99
2016-06-04T10:24:57.833Z,21.64
2016-06-04T10:25:57.851Z,21.99
2016-06-04T10:26:57.886Z,21.69
2016-06-04T10:27:58.280Z,21.8
2016-06-04T10:28:58.126Z,21.49
2016-06-04T10:29:58.005Z,21.2
2016-06-04T10:32:12.263Z,22.46
2016-06-04T10:32:58.107Z,24.13
2016-06-04T10:33:58.156Z,21.88
2016-06-04T10:34:58.174Z,22.06
2016-06-04T10:35:58.208Z,25.31
2016-06-04T10:36:58.242Z,23.44
2016-06-04T10:37:58.276Z,23.06
2016-06-04T10:38:58.310Z,22.06
2016-06-04T10:39:58.344Z,24.02
2016-06-04T10:40:58.378Z,22.16
2016-06-04T10:41:58.412Z,24.21
2016-06-04T10:42:58.462Z,22.06
2016-06-04T10:43:58.496Z,21.96
2016-06-04T10:44:58.623Z,23.53
2016-06-04T10:45:58.548Z,24.31
2016-06-04T10:46:58.597Z,23.43
2016-06-04T10:47:58.616Z,21.86
2016-06-04T10:48:58.650Z,22.83
2016-06-04T10:49:58.683Z,22.91
2016-06-04T10:50:58.717Z,24.16
2016-06-04T10:51:58.751Z,23.97
2016-06-04T10:52:58.786Z,22.99
2016-06-04T10:53:58.819Z,23.69
2016-06-04T10:54:58.853Z,23.68
2016-06-04T10:55:58.886Z,24.65
2016-06-04T10:57:59.361Z,24.47
2016-06-04T10:58:58.988Z,25.16
2016-06-04T10:59:59.023Z,24.29
2016-06-04T11:00:59.057Z,24.19
2016-06-04T11:02:59.125Z,26.14
2016-06-04T11:04:13.333Z,24.76
2016-06-04T11:04:59.193Z,24.08
2016-06-04T11:05:59.227Z,24.55
2016-06-04T11:06:59.245Z,24.26
2016-06-04T11:08:59.329Z,24.26
2016-06-04T11:09:59.346Z,24.75
2016-06-04T11:10:59.381Z,25.83
2016-06-04T11:11:59.414Z,25.84
2016-06-04T11:12:59.465Z,24.48
2016-06-04T11:13:59.482Z,25.85
2016-06-04T11:14:59.517Z,25.57
2016-06-04T11:15:59.551Z,23.92
2016-06-04T11:16:59.585Z,24.02
2016-06-04T11:17:59.618Z,24.3
2016-06-04T11:18:59.668Z,23.12
2016-06-04T11:20:13.876Z,24.4
2016-06-04T11:20:59.720Z,23.7
2016-06-04T11:21:59.754Z,24.29
2016-06-04T11:22:59.772Z,25.92
2016-06-04T11:23:59.806Z,26.4
2016-06-04T11:24:59.856Z,24.55
2016-06-04T11:25:59.875Z,24.85
2016-06-04T11:26:59.908Z,25.34
2016-06-04T11:27:59.958Z,24.95
2016-06-04T11:28:59.976Z,24.16
2016-06-04T11:31:00.044Z,25.43
2016-06-04T11:32:00.078Z,25.43
2016-06-04T11:33:00.111Z,24.16
2016-06-04T11:34:00.146Z,27.69
2016-06-04T11:35:00.180Z,23.79
2016-06-04T11:36:14.404Z,24.68
2016-06-04T11:37:00.263Z,25.37
2016-06-04T11:38:00.281Z,24.09
2016-06-04T11:39:00.300Z,25.16
2016-06-04T11:40:00.334Z,23.49
2016-06-04T11:41:00.383Z,23.9
2016-06-04T11:42:00.901Z,24.09
2016-06-04T11:43:00.435Z,24.48
2016-06-04T11:44:00.469Z,24.87
2016-06-04T11:45:00.519Z,24.29
2016-06-04T11:46:00.537Z,23.99
2016-06-04T11:47:00.570Z,24.47
2016-06-04T11:48:00.606Z,25.24
2016-06-04T11:49:00.640Z,24.65
2016-06-04T11:50:00.673Z,25.62
2016-06-04T11:51:00.707Z,25.92
2016-06-04T11:52:14.915Z,26.31
2016-06-04T11:53:00.775Z,26.7
2016-06-04T11:54:00.793Z,26.01
2016-06-04T11:55:00.828Z,28.08
2016-06-04T11:56:00.955Z,28.28
2016-06-04T11:57:00.894Z,24.19
2016-06-04T11:58:00.929Z,24.29
2016-06-04T11:59:00.963Z,24.38
2016-06-04T12:00:00.997Z,24.09
2016-06-04T12:01:01.031Z,23.8
2016-06-04T12:02:01.049Z,24.48
2016-06-04T12:03:01.099Z,24.38
2016-06-04T12:05:01.152Z,24.09
2016-06-04T12:06:01.185Z,23.9
2016-06-04T12:07:15.409Z,24.77
2016-06-04T12:08:01.252Z,24.65
2016-06-04T12:09:01.288Z,26.03
2016-06-04T12:10:01.368Z,25.24
2016-06-04T12:11:01.355Z,26.03
2016-06-04T12:12:01.404Z,25.93
2016-06-04T12:13:01.407Z,25.34
2016-06-04T12:14:01.441Z,25.24
2016-06-04T12:15:01.474Z,25.23
2016-06-04T12:16:01.509Z,25.43
2016-06-04T12:17:01.574Z,26.71
2016-06-04T12:18:01.576Z,25.44
2016-06-04T12:19:01.610Z,24.27
2016-06-04T12:20:01.645Z,23.9
2016-06-04T12:22:01.697Z,25.16
2016-06-04T12:23:01.746Z,24.08
2016-06-04T12:24:01.764Z,24.18
2016-06-04T12:25:01.798Z,24.26
2016-06-04T12:26:01.833Z,24.55
2016-06-04T12:27:01.866Z,25.33
2016-06-04T12:28:01.901Z,25.54
2016-06-04T12:29:02.028Z,25.92
2016-06-04T12:30:01.969Z,25.43
2016-06-04T12:31:01.986Z,26.6
2016-06-04T12:32:02.020Z,26.2
2016-06-04T12:33:02.055Z,24.44
2016-06-04T12:34:02.104Z,26.5
2016-06-04T12:35:02.122Z,26.11
2016-06-04T12:37:02.191Z,24.63
2016-06-04T12:38:02.208Z,26.77
2016-06-04T12:39:16.433Z,26.49
2016-06-04T12:40:02.277Z,25.12
2016-06-04T12:41:02.310Z,25.42
2016-06-04T12:42:02.344Z,26.48
2016-06-04T12:43:02.925Z,25.89
2016-06-04T12:44:02.412Z,26.76
2016-06-04T12:45:02.446Z,26.17
2016-06-04T12:46:02.464Z,26.09
2016-06-04T12:47:02.499Z,26.48
2016-06-04T12:49:02.566Z,25.62
2016-06-04T12:50:02.600Z,25.81
2016-06-04T12:51:02.634Z,25.61
2016-06-04T12:52:02.668Z,25.61
2016-06-04T12:53:02.545Z,26.1
2016-06-04T12:54:02.736Z,25.42
2016-06-04T12:55:16.945Z,26.57
2016-06-04T12:57:02.822Z,26.38
2016-06-04T12:58:02.872Z,26.59
2016-06-04T12:59:02.890Z,25.32
2016-06-04T13:00:02.939Z,26.39
2016-06-04T13:01:02.958Z,27.27
2016-06-04T13:03:03.011Z,25.4
2016-06-04T13:04:03.044Z,25.5
2016-06-04T13:05:03.078Z,25.99
2016-06-04T13:06:03.112Z,25.6
2016-06-04T13:07:03.146Z,25.78
2016-06-04T13:08:03.164Z,25.49
2016-06-04T13:09:03.213Z,25.89
2016-06-04T13:10:03.232Z,27.05
2016-06-04T13:11:17.457Z,26.76
2016-06-04T13:12:03.300Z,26.97
2016-06-04T13:13:04.506Z,27.16
2016-06-04T13:14:04.446Z,27.17
2016-06-04T13:15:03.385Z,26.29
2016-06-04T13:16:03.436Z,25.68
2016-06-04T13:17:03.454Z,26.35
2016-06-04T13:18:03.332Z,27.02
2016-06-04T13:19:03.522Z,27.81
2016-06-04T13:20:03.556Z,27.23
2016-06-04T13:21:03.589Z,26.45
2016-06-04T13:22:03.609Z,25.67
2016-06-04T13:23:03.642Z,26.93
2016-06-04T13:24:03.692Z,26.64
2016-06-04T13:26:04.323Z,27.05
2016-06-04T13:27:17.968Z,26.76
2016-06-04T13:28:03.812Z,26.64
2016-06-04T13:29:03.830Z,27.7
2016-06-04T13:30:03.864Z,27.7
2016-06-04T13:31:03.898Z,26.63
2016-06-04T13:32:03.932Z,26.73
2016-06-04T13:33:03.966Z,26.54
2016-06-04T13:34:03.984Z,26.64
2016-06-04T13:35:04.019Z,26.34
2016-06-04T13:36:04.052Z,26.72
2016-06-04T13:37:04.086Z,27.2
2016-06-04T13:38:04.120Z,27.9
2016-06-04T13:39:04.155Z,26.63